Time;durP1;ratioP1;P1;durP2;ratioP2;P2;SDS_P1;SDS_P2;PMS_P1;PMS_P2;Temp;Humidity;BMP_temperature;BMP_pressure;BME280_temperature;BME280_humidity;BME280_pressure;Samples;Min_cycle;Max_cycle;Signal;HPM_P1;HPM_P2
2023/05/29 00:02:12;;;;;;;3.15;2.60;;;;;;;;;;4953304;28;20240;-78
2023/05/29 00:04:40;;;;;;;2.78;2.58;;;;;;;;;;4951039;28;20055;-78
2023/05/29 00:07:07;;;;;;;3.65;2.75;;;;;;;;;;4951767;28;20039;-78
2023/05/29 00:09:35;;;;;;;3.42;3.13;;;;;;;;;;4951186;28;20086;-77
2023/05/29 00:12:02;;;;;;;3.50;3.20;;;;;;;;;;4951999;28;20039;-79
2023/05/29 00:14:30;;;;;;;3.03;2.83;;;;;;;;;;4951042;28;20067;-78
2023/05/29 00:16:57;;;;;;;3.08;2.47;;;;;;;;;;4951682;28;20129;-78
2023/05/29 00:19:24;;;;;;;2.58;2.38;;;;;;;;;;4950072;28;20063;-78
2023/05/29 00:21:52;;;;;;;2.65;2.42;;;;;;;;;;4949787;28;20138;-78
2023/05/29 00:24:20;;;;;;;3.55;2.55;;;;;;;;;;4948082;28;20066;-77
2023/05/29 00:26:48;;;;;;;3.60;2.85;;;;;;;;;;4947030;28;20043;-77
2023/05/29 00:29:15;;;;;;;3.05;2.80;;;;;;;;;;4948111;28;20509;-77
2023/05/29 00:31:43;;;;;;;2.75;2.55;;;;;;;;;;4943713;28;20417;-77
2023/05/29 00:34:10;;;;;;;2.90;2.70;;;;;;;;;;4947380;28;20051;-77
2023/05/29 00:36:38;;;;;;;3.05;2.50;;;;;;;;;;4947818;28;20086;-76
2023/05/29 00:39:05;;;;;;;2.95;2.72;;;;;;;;;;4943605;28;20461;-78
2023/05/29 00:41:33;;;;;;;3.38;3.00;;;;;;;;;;4943664;28;20065;-77
2023/05/29 00:44:00;;;;;;;3.25;3.00;;;;;;;;;;4949278;28;20602;-77
2023/05/29 00:46:30;;;;;;;3.35;3.05;;;;;;;;;;4945848;28;20110;-77
2023/05/29 00:48:59;;;;;;;3.05;2.85;;;;;;;;;;4946924;28;20047;-78
2023/05/29 00:51:27;;;;;;;3.22;2.92;;;;;;;;;;4948616;28;20075;-78
2023/05/29 00:53:54;;;;;;;2.83;2.60;;;;;;;;;;4942519;28;20047;-77
2023/05/29 00:56:22;;;;;;;3.35;2.33;;;;;;;;;;4944527;28;20097;-78
2023/05/29 00:58:50;;;;;;;3.00;2.70;;;;;;;;;;4948951;28;20082;-78
2023/05/29 01:01:18;;;;;;;4.70;2.63;;;;;;;;;;4947604;28;20047;-78
2023/05/29 01:03:48;;;;;;;3.50;3.00;;;;;;;;;;4945070;28;20102;-77
2023/05/29 01:06:16;;;;;;;2.80;2.60;;;;;;;;;;4949274;28;20063;-76
2023/05/29 01:08:44;;;;;;;3.55;3.25;;;;;;;;;;4946196;28;20054;-76
2023/05/29 01:11:22;;;;;;;4.00;3.15;;;;;;;;;;4944562;28;20509;-77
2023/05/29 01:13:50;;;;;;;3.10;2.47;;;;;;;;;;4944855;28;20141;-77
2023/05/29 01:16:33;;;;;;;2.90;2.70;;;;;;;;;;4948895;28;20047;-78
2023/05/29 01:19:08;;;;;;;2.80;2.60;;;;;;;;;;4951984;28;20051;-78
2023/05/29 01:21:44;;;;;;;3.30;3.00;;;;;;;;;;4947940;28;20062;-77
2023/05/29 01:24:27;;;;;;;4.28;3.10;;;;;;;;;;4947366;28;20047;-78
2023/05/29 01:27:10;;;;;;;3.38;3.08;;;;;;;;;;4951425;28;20047;-78
2023/05/29 01:29:57;;;;;;;3.08;2.78;;;;;;;;;;4950666;28;20218;-78
2023/05/29 01:32:25;;;;;;;2.80;2.60;;;;;;;;;;4947469;28;20134;-77
2023/05/29 01:34:53;;;;;;;2.90;2.60;;;;;;;;;;4946966;28;20051;-77
2023/05/29 01:37:21;;;;;;;3.85;3.00;;;;;;;;;;4947845;28;20057;-78
2023/05/29 01:39:48;;;;;;;3.10;2.90;;;;;;;;;;4946633;28;20126;-78
2023/05/29 01:42:16;;;;;;;2.65;2.45;;;;;;;;;;4947759;28;20043;-78
2023/05/29 01:44:43;;;;;;;3.25;2.95;;;;;;;;;;4948220;28;20050;-78
2023/05/29 01:47:15;;;;;;;;;;;;;;;;;;4950678;28;20051;-78
2023/05/29 01:49:44;;;;;;;2.80;2.60;;;;;;;;;;4946307;28;19930;-78
2023/05/29 01:52:11;;;;;;;2.92;2.72;;;;;;;;;;4945834;28;20043;-78
2023/05/29 01:54:38;;;;;;;3.05;2.75;;;;;;;;;;4944549;28;20062;-77
2023/05/29 01:57:06;;;;;;;5.00;2.70;;;;;;;;;;4947591;28;20224;-78
2023/05/29 01:59:35;;;;;;;3.00;2.80;;;;;;;;;;4942692;28;20071;-78
2023/05/29 02:02:06;;;;;;;3.10;2.80;;;;;;;;;;4944617;28;20699;-78
2023/05/29 02:04:34;;;;;;;2.90;2.70;;;;;;;;;;4944075;28;20051;-77
2023/05/29 02:07:01;;;;;;;3.22;2.90;;;;;;;;;;4963093;28;20043;-77
2023/05/29 02:09:29;;;;;;;2.80;2.60;;;;;;;;;;4948680;28;20079;-77
2023/05/29 02:11:56;;;;;;;2.92;2.60;;;;;;;;;;4945693;23;20468;-73
2023/05/29 02:14:24;;;;;;;2.95;2.75;;;;;;;;;;4923852;29;20058;-73
2023/05/29 02:16:53;;;;;;;2.95;2.70;;;;;;;;;;4927051;29;20066;-73
2023/05/29 02:19:25;;;;;;;3.10;2.80;;;;;;;;;;4921278;29;20901;-73
2023/05/29 02:21:52;;;;;;;2.78;2.58;;;;;;;;;;4934116;28;20235;-74
2023/05/29 02:24:20;;;;;;;2.80;2.60;;;;;;;;;;4924952;29;20333;-74
2023/05/29 02:26:50;;;;;;;3.00;2.67;;;;;;;;;;4920083;29;20502;-73
2023/05/29 02:29:18;;;;;;;2.97;2.67;;;;;;;;;;4922501;29;20151;-73
2023/05/29 02:31:46;;;;;;;3.13;2.85;;;;;;;;;;4920506;29;20050;-73
2023/05/29 02:34:13;;;;;;;2.60;2.40;;;;;;;;;;4931430;28;20126;-74
2023/05/29 02:36:41;;;;;;;2.58;2.38;;;;;;;;;;4913413;29;20252;-73
2023/05/29 02:39:09;;;;;;;3.08;2.78;;;;;;;;;;4925097;29;20087;-74
2023/05/29 02:41:38;;;;;;;2.95;2.75;;;;;;;;;;4921042;29;20052;-74
2023/05/29 02:44:05;;;;;;;3.40;2.83;;;;;;;;;;4926493;28;20075;-74
2023/05/29 02:46:33;;;;;;;4.07;2.40;;;;;;;;;;4920373;29;20052;-73
2023/05/29 02:49:00;;;;;;;2.80;2.60;;;;;;;;;;4922817;29;20055;-73
2023/05/29 02:51:28;;;;;;;2.95;2.67;;;;;;;;;;4922123;29;20122;-74
2023/05/29 02:53:55;;;;;;;3.60;3.28;;;;;;;;;;4923366;29;20515;-73
2023/05/29 02:56:23;;;;;;;3.05;2.75;;;;;;;;;;4921806;29;20059;-74
2023/05/29 02:58:51;;;;;;;3.22;2.92;;;;;;;;;;4922161;29;20043;-74
2023/05/29 03:01:18;;;;;;;3.10;2.88;;;;;;;;;;4920497;29;20056;-74
2023/05/29 03:03:48;;;;;;;2.67;2.47;;;;;;;;;;4922211;29;20056;-74
2023/05/29 03:06:17;;;;;;;3.28;2.97;;;;;;;;;;4924927;29;20110;-73
2023/05/29 03:08:46;;;;;;;2.80;2.60;;;;;;;;;;4925023;29;20048;-73
2023/05/29 03:11:15;;;;;;;3.20;3.00;;;;;;;;;;4918193;29;20040;-73
2023/05/29 03:13:42;;;;;;;3.15;2.85;;;;;;;;;;4923916;29;20197;-73
2023/05/29 03:16:10;;;;;;;3.10;2.67;;;;;;;;;;4921796;29;20196;-73
2023/05/29 03:18:39;;;;;;;3.13;2.83;;;;;;;;;;4924561;29;20063;-73
2023/05/29 03:21:07;;;;;;;2.97;2.65;;;;;;;;;;4926228;29;20143;-73
2023/05/29 03:23:35;;;;;;;2.83;2.63;;;;;;;;;;4928183;29;20055;-74
2023/05/29 03:26:03;;;;;;;3.28;2.97;;;;;;;;;;4926692;29;20040;-74
2023/05/29 03:28:33;;;;;;;2.63;2.42;;;;;;;;;;4935827;29;20051;-74
2023/05/29 03:31:03;;;;;;;4.15;2.63;;;;;;;;;;4936038;29;20561;-74
2023/05/29 03:33:31;;;;;;;4.90;2.75;;;;;;;;;;4936543;29;20131;-74
2023/05/29 03:36:19;;;;;;;3.13;2.63;;;;;;;;;;4920805;29;20361;-74
2023/05/29 03:38:47;;;;;;;3.13;2.67;;;;;;;;;;4920797;29;20509;-74
2023/05/29 03:41:15;;;;;;;2.75;2.45;;;;;;;;;;4917169;29;20059;-75
2023/05/29 03:43:43;;;;;;;2.55;2.35;;;;;;;;;;4926983;29;20192;-74
2023/05/29 03:46:10;;;;;;;2.75;2.53;;;;;;;;;;4927732;29;20055;-74
2023/05/29 03:48:38;;;;;;;3.08;2.78;;;;;;;;;;4923090;29;20052;-75
2023/05/29 03:51:06;;;;;;;2.95;2.75;;;;;;;;;;4924566;29;20044;-75
2023/05/29 03:53:36;;;;;;;2.97;2.60;;;;;;;;;;4923764;29;20048;-74
2023/05/29 03:56:05;;;;;;;2.95;2.67;;;;;;;;;;4928500;29;20066;-74
2023/05/29 03:58:33;;;;;;;2.95;2.65;;;;;;;;;;4927145;29;20146;-74
2023/05/29 04:01:01;;;;;;;2.95;2.72;;;;;;;;;;4942214;28;20072;-74
2023/05/29 04:03:31;;;;;;;2.47;2.30;;;;;;;;;;4933116;29;20051;-75
2023/05/29 04:05:59;;;;;;;3.05;2.83;;;;;;;;;;4927412;29;20054;-75
2023/05/29 04:08:27;;;;;;;2.58;2.38;;;;;;;;;;4924728;29;20075;-74
2023/05/29 04:10:54;;;;;;;2.75;2.53;;;;;;;;;;4928455;29;20058;-75
2023/05/29 04:13:22;;;;;;;3.15;2.92;;;;;;;;;;4928103;29;20122;-75
2023/05/29 04:15:52;;;;;;;3.10;2.80;;;;;;;;;;4925630;29;20410;-74
2023/05/29 04:18:20;;;;;;;3.10;2.90;;;;;;;;;;4921340;29;20066;-74
2023/05/29 04:20:49;;;;;;;5.38;2.70;;;;;;;;;;4924996;29;20122;-75
2023/05/29 04:23:17;;;;;;;3.13;2.83;;;;;;;;;;4925189;28;20062;-74
2023/05/29 04:25:44;;;;;;;2.83;2.50;;;;;;;;;;4920838;29;20052;-74
2023/05/29 04:28:15;;;;;;;2.60;2.40;;;;;;;;;;4923105;29;20071;-75
2023/05/29 04:30:43;;;;;;;3.45;2.55;;;;;;;;;;4926619;29;20050;-74
2023/05/29 04:33:12;;;;;;;2.75;2.55;;;;;;;;;;4924108;29;20079;-75
2023/05/29 04:35:45;;;;;;;2.58;2.38;;;;;;;;;;4913416;29;20052;-74
2023/05/29 04:38:12;;;;;;;2.47;2.35;;;;;;;;;;4924157;29;20050;-74
2023/05/29 04:40:40;;;;;;;3.10;2.80;;;;;;;;;;4921044;29;20086;-74
2023/05/29 04:43:09;;;;;;;2.65;2.45;;;;;;;;;;4923926;29;20048;-75
2023/05/29 04:46:07;;;;;;;2.60;2.10;;;;;;;;;;4918486;29;20099;-74
2023/05/29 04:48:40;;;;;;;2.80;2.60;;;;;;;;;;4927158;29;20039;-75
2023/05/29 04:51:10;;;;;;;2.60;2.40;;;;;;;;;;4919184;29;20058;-74
2023/05/29 04:53:40;;;;;;;2.60;2.40;;;;;;;;;;4917329;28;20067;-74
2023/05/29 04:56:09;;;;;;;2.95;2.60;;;;;;;;;;4926243;29;20070;-75
2023/05/29 04:58:37;;;;;;;2.92;2.60;;;;;;;;;;4922094;29;20098;-74
2023/05/29 05:01:07;;;;;;;2.70;2.50;;;;;;;;;;4918881;29;20083;-74
2023/05/29 05:03:37;;;;;;;3.08;2.88;;;;;;;;;;4908006;29;20048;-74
2023/05/29 05:06:07;;;;;;;3.15;2.83;;;;;;;;;;4915765;29;20130;-74
2023/05/29 05:08:35;;;;;;;2.55;2.35;;;;;;;;;;4927835;29;20505;-75
2023/05/29 05:11:04;;;;;;;2.40;2.20;;;;;;;;;;4918141;29;20084;-75
2023/05/29 05:13:32;;;;;;;3.17;2.58;;;;;;;;;;4936345;29;20516;-75
2023/05/29 05:16:00;;;;;;;3.00;2.80;;;;;;;;;;4935875;29;20110;-75
2023/05/29 05:18:30;;;;;;;2.90;2.70;;;;;;;;;;4940773;28;20076;-75
2023/05/29 05:21:06;;;;;;;3.15;2.88;;;;;;;;;;4919081;29;20043;-75
2023/05/29 05:23:35;;;;;;;2.50;2.30;;;;;;;;;;4914046;29;20063;-75
2023/05/29 05:26:23;;;;;;;2.80;2.60;;;;;;;;;;4913931;29;20735;-75
2023/05/29 05:28:50;;;;;;;2.60;2.40;;;;;;;;;;4919298;29;20079;-75
2023/05/29 05:31:17;;;;;;;3.75;2.30;;;;;;;;;;4922916;28;20047;-75
2023/05/29 05:33:45;;;;;;;2.80;2.35;;;;;;;;;;4924200;29;20407;-75
2023/05/29 05:36:13;;;;;;;2.05;1.95;;;;;;;;;;4916707;29;20047;-75
2023/05/29 05:38:41;;;;;;;2.40;2.20;;;;;;;;;;4916475;29;20095;-75
2023/05/29 05:41:09;;;;;;;2.60;2.40;;;;;;;;;;4913993;28;20044;-75
2023/05/29 05:43:37;;;;;;;2.28;2.13;;;;;;;;;;4928035;29;20111;-75
2023/05/29 05:46:18;;;;;;;2.20;2.10;;;;;;;;;;4932110;29;20062;-75
2023/05/29 05:48:46;;;;;;;2.67;2.47;;;;;;;;;;4928728;29;20040;-75
2023/05/29 05:51:13;;;;;;;2.30;2.10;;;;;;;;;;4929510;29;20055;-75
2023/05/29 05:53:42;;;;;;;2.40;2.20;;;;;;;;;;4944344;29;20047;-75
2023/05/29 05:56:09;;;;;;;3.00;2.58;;;;;;;;;;4931785;28;20044;-75
2023/05/29 05:58:37;;;;;;;2.38;2.28;;;;;;;;;;4924977;29;20075;-75
2023/05/29 06:01:06;;;;;;;2.35;2.20;;;;;;;;;;4931231;29;20035;-75
2023/05/29 06:03:34;;;;;;;2.80;2.60;;;;;;;;;;4937513;29;20075;-75
2023/05/29 06:06:06;;;;;;;2.47;2.30;;;;;;;;;;4926268;29;20075;-75
2023/05/29 06:08:34;;;;;;;2.15;2.03;;;;;;;;;;4933215;28;20419;-75
2023/05/29 06:11:01;;;;;;;2.58;2.22;;;;;;;;;;4925271;29;20106;-75
2023/05/29 06:13:30;;;;;;;2.40;2.20;;;;;;;;;;4920360;29;20387;-75
2023/05/29 06:16:05;;;;;;;2.30;2.10;;;;;;;;;;4916884;29;20190;-75
2023/05/29 06:18:32;;;;;;;2.38;2.20;;;;;;;;;;4931945;29;20058;-75
2023/05/29 06:21:01;;;;;;;2.40;2.20;;;;;;;;;;4922598;29;20450;-75
2023/05/29 06:23:30;;;;;;;2.13;2.03;;;;;;;;;;4924131;29;20052;-75
2023/05/29 06:25:57;;;;;;;2.40;2.20;;;;;;;;;;4925839;29;20418;-75
2023/05/29 06:28:25;;;;;;;2.25;2.05;;;;;;;;;;4929375;29;21006;-75
2023/05/29 06:30:53;;;;;;;2.40;2.20;;;;;;;;;;4925648;29;20048;-75
2023/05/29 06:33:21;;;;;;;2.58;2.40;;;;;;;;;;4925905;29;20047;-75
2023/05/29 06:35:49;;;;;;;2.47;2.28;;;;;;;;;;4927862;29;20481;-75
2023/05/29 06:38:17;;;;;;;4.10;2.55;;;;;;;;;;4935221;29;20128;-75
2023/05/29 06:40:54;;;;;;;2.20;2.10;;;;;;;;;;4943561;29;20106;-75
2023/05/29 06:43:23;;;;;;;3.70;2.00;;;;;;;;;;4931698;28;20190;-75
2023/05/29 06:45:56;;;;;;;2.20;2.00;;;;;;;;;;4900567;29;20355;-75
2023/05/29 06:48:23;;;;;;;2.00;1.90;;;;;;;;;;4929956;28;20043;-75
2023/05/29 06:50:51;;;;;;;2.50;2.30;;;;;;;;;;4923803;29;20075;-75
2023/05/29 06:53:37;;;;;;;1.95;1.85;;;;;;;;;;4918225;29;20052;-76
2023/05/29 06:56:06;;;;;;;2.08;1.90;;;;;;;;;;4919502;29;20092;-75
2023/05/29 06:58:34;;;;;;;1.67;1.58;;;;;;;;;;4946981;29;20275;-76
2023/05/29 07:01:01;;;;;;;1.90;1.80;;;;;;;;;;4937661;29;20032;-76
2023/05/29 07:03:53;;;;;;;1.92;1.75;;;;;;;;;;4944658;29;20104;-75
2023/05/29 07:06:20;;;;;;;2.60;2.10;;;;;;;;;;4927545;29;20368;-76
2023/05/29 07:08:48;;;;;;;2.20;2.00;;;;;;;;;;4929549;29;20155;-75
2023/05/29 07:11:17;;;;;;;2.17;2.08;;;;;;;;;;4928209;29;20044;-76
2023/05/29 07:13:44;;;;;;;2.10;2.00;;;;;;;;;;4929149;29;20277;-76
2023/05/29 07:16:14;;;;;;;1.80;1.70;;;;;;;;;;4926811;29;20470;-75
2023/05/29 07:18:56;;;;;;;1.90;1.77;;;;;;;;;;4927431;29;20533;-75
2023/05/29 07:21:24;;;;;;;2.10;1.60;;;;;;;;;;4926023;29;20111;-76
2023/05/29 07:23:52;;;;;;;2.17;2.00;;;;;;;;;;4926387;29;20134;-75
2023/05/29 07:26:22;;;;;;;1.77;1.67;;;;;;;;;;4926316;29;20071;-76
2023/05/29 07:28:50;;;;;;;2.00;1.90;;;;;;;;;;4943455;29;20232;-75
2023/05/29 07:31:18;;;;;;;1.67;1.58;;;;;;;;;;4928602;28;20458;-76
2023/05/29 07:33:48;;;;;;;1.45;1.45;;;;;;;;;;4928178;29;20448;-76
2023/05/29 07:36:17;;;;;;;1.88;1.70;;;;;;;;;;4919473;29;20520;-76
2023/05/29 07:38:46;;;;;;;2.10;1.83;;;;;;;;;;4940710;29;20071;-76
2023/05/29 07:41:17;;;;;;;4.50;2.05;;;;;;;;;;4930012;29;20525;-76
2023/05/29 07:43:52;;;;;;;2.28;2.10;;;;;;;;;;4930322;29;20391;-76
2023/05/29 07:46:20;;;;;;;2.10;2.00;;;;;;;;;;4921006;29;20039;-76
2023/05/29 07:48:51;;;;;;;2.00;1.90;;;;;;;;;;4924936;29;20071;-76
2023/05/29 07:51:19;;;;;;;1.80;1.70;;;;;;;;;;4924903;29;20068;-75
2023/05/29 07:53:48;;;;;;;1.70;1.60;;;;;;;;;;4922763;29;20055;-75
2023/05/29 07:56:16;;;;;;;1.48;1.38;;;;;;;;;;4920158;29;20046;-76
2023/05/29 07:58:44;;;;;;;1.88;1.58;;;;;;;;;;4921606;29;20048;-76
2023/05/29 08:01:12;;;;;;;1.60;1.50;;;;;;;;;;4921401;29;20523;-75
2023/05/29 08:03:43;;;;;;;1.70;1.60;;;;;;;;;;4923555;28;20127;-76
2023/05/29 08:06:42;;;;;;;1.60;1.50;;;;;;;;;;4916899;29;20191;-76
2023/05/29 08:09:10;;;;;;;1.25;1.25;;;;;;;;;;4932064;29;20048;-75
2023/05/29 08:11:38;;;;;;;1.80;1.70;;;;;;;;;;4940891;23;20110;-77
2023/05/29 08:14:05;;;;;;;2.22;2.03;;;;;;;;;;4929791;29;20043;-77
2023/05/29 08:16:33;;;;;;;1.88;1.77;;;;;;;;;;4927824;29;20465;-78
2023/05/29 08:19:01;;;;;;;2.15;1.88;;;;;;;;;;4925320;28;20052;-78
2023/05/29 08:21:37;;;;;;;2.00;1.90;;;;;;;;;;4930419;29;20047;-78
2023/05/29 08:24:05;;;;;;;2.15;2.05;;;;;;;;;;4930894;29;20075;-79
2023/05/29 08:26:33;;;;;;;1.80;1.70;;;;;;;;;;4931122;29;20486;-78
2023/05/29 08:29:03;;;;;;;1.85;1.75;;;;;;;;;;4926543;29;20556;-78
2023/05/29 08:31:33;;;;;;;2.20;2.00;;;;;;;;;;4927952;29;20055;-78
2023/05/29 08:34:00;;;;;;;1.90;1.80;;;;;;;;;;4929309;29;20477;-79
2023/05/29 08:36:28;;;;;;;1.98;1.73;;;;;;;;;;4934332;29;20813;-78
2023/05/29 08:38:56;;;;;;;2.47;1.77;;;;;;;;;;4928272;29;20099;-78
2023/05/29 08:41:29;;;;;;;2.42;2.30;;;;;;;;;;4928560;29;20103;-79
2023/05/29 08:43:58;;;;;;;2.17;1.95;;;;;;;;;;4928174;29;20052;-79
2023/05/29 08:46:27;;;;;;;1.67;1.58;;;;;;;;;;4920515;29;20059;-79
2023/05/29 08:48:58;;;;;;;2.70;2.50;;;;;;;;;;4928886;29;20051;-77
2023/05/29 08:51:31;;;;;;;2.40;2.20;;;;;;;;;;4921766;29;20043;-79
2023/05/29 08:53:58;;;;;;;1.75;1.65;;;;;;;;;;4925156;29;20051;-78
2023/05/29 08:56:26;;;;;;;2.22;1.90;;;;;;;;;;4945077;28;20138;-77
2023/05/29 08:59:02;;;;;;;2.10;1.95;;;;;;;;;;4928412;29;20071;-78
2023/05/29 09:01:35;;;;;;;2.35;2.25;;;;;;;;;;4925312;29;20052;-78
2023/05/29 09:04:03;;;;;;;2.25;2.05;;;;;;;;;;4926021;29;20051;-79
2023/05/29 09:06:31;;;;;;;2.00;1.90;;;;;;;;;;4926675;29;20109;-78
2023/05/29 09:08:58;;;;;;;2.08;1.88;;;;;;;;;;4924050;29;20043;-76
2023/05/29 09:11:26;;;;;;;2.20;2.00;;;;;;;;;;4925154;29;20128;-78
2023/05/29 09:13:53;;;;;;;2.17;1.98;;;;;;;;;;4909162;29;20048;-77
2023/05/29 09:16:24;;;;;;;2.03;1.90;;;;;;;;;;4925631;29;20052;-77
2023/05/29 09:18:52;;;;;;;2.00;1.90;;;;;;;;;;4925624;29;20454;-77
2023/05/29 09:21:29;;;;;;;2.00;1.90;;;;;;;;;;4921439;29;20461;-77
2023/05/29 09:24:03;;;;;;;1.90;1.80;;;;;;;;;;4916633;29;20078;-77
2023/05/29 09:26:31;;;;;;;2.10;2.00;;;;;;;;;;4928103;29;20051;-78
2023/05/29 09:28:59;;;;;;;2.00;1.90;;;;;;;;;;4923375;29;20055;-77
2023/05/29 09:31:26;;;;;;;1.80;1.70;;;;;;;;;;4925954;29;20043;-78
2023/05/29 09:33:54;;;;;;;1.83;1.73;;;;;;;;;;4928503;29;20044;-78
2023/05/29 09:36:23;;;;;;;2.10;1.90;;;;;;;;;;4924284;29;20816;-78
2023/05/29 09:38:51;;;;;;;1.90;1.80;;;;;;;;;;4923164;29;20055;-79
2023/05/29 09:41:32;;;;;;;2.60;2.00;;;;;;;;;;4924904;29;20344;-79
2023/05/29 09:44:00;;;;;;;1.85;1.75;;;;;;;;;;4926369;29;20173;-77
2023/05/29 09:46:28;;;;;;;2.00;1.90;;;;;;;;;;4926382;29;20051;-77
2023/05/29 09:49:02;;;;;;;2.30;2.10;;;;;;;;;;4926032;29;20075;-78
2023/05/29 09:51:30;;;;;;;2.30;2.20;;;;;;;;;;4923948;29;20063;-78
2023/05/29 09:54:00;;;;;;;2.20;2.00;;;;;;;;;;4923398;29;20047;-78
2023/05/29 09:56:29;;;;;;;1.98;1.80;;;;;;;;;;4922313;29;20050;-78
2023/05/29 09:58:56;;;;;;;2.15;2.05;;;;;;;;;;4923106;29;20055;-78
2023/05/29 10:01:24;;;;;;;2.55;2.33;;;;;;;;;;4926958;29;20047;-77
2023/05/29 10:03:53;;;;;;;3.03;2.33;;;;;;;;;;4921314;29;20102;-78
2023/05/29 10:06:21;;;;;;;2.28;2.03;;;;;;;;;;4922165;29;20047;-78
2023/05/29 10:08:53;;;;;;;2.60;2.40;;;;;;;;;;4924409;29;20043;-78
2023/05/29 10:11:26;;;;;;;2.25;2.05;;;;;;;;;;4923338;29;20473;-77
2023/05/29 10:13:54;;;;;;;1.67;1.58;;;;;;;;;;4923449;29;20040;-77
2023/05/29 10:16:23;;;;;;;2.10;2.00;;;;;;;;;;4931311;29;20048;-78
2023/05/29 10:18:54;;;;;;;2.10;1.90;;;;;;;;;;4930767;28;20044;-78
2023/05/29 10:21:22;;;;;;;2.42;2.20;;;;;;;;;;4929318;29;20055;-78
2023/05/29 10:23:50;;;;;;;2.50;2.30;;;;;;;;;;4927967;29;20065;-77
2023/05/29 10:26:21;;;;;;;2.08;1.85;;;;;;;;;;4929428;29;20739;-77
2023/05/29 10:28:52;;;;;;;1.77;1.67;;;;;;;;;;4934256;29;20043;-77
2023/05/29 10:31:30;;;;;;;2.25;2.05;;;;;;;;;;4931926;29;20083;-76
2023/05/29 10:34:16;;;;;;;1.80;1.70;;;;;;;;;;4930621;29;20095;-77
2023/05/29 10:36:47;;;;;;;2.50;1.80;;;;;;;;;;4928261;29;20774;-78
2023/05/29 10:39:15;;;;;;;2.28;2.08;;;;;;;;;;4929638;29;20051;-77
2023/05/29 10:41:42;;;;;;;2.03;1.92;;;;;;;;;;4928465;29;20048;-77
2023/05/29 10:44:29;;;;;;;3.90;2.33;;;;;;;;;;4940311;29;20051;-78
2023/05/29 10:46:57;;;;;;;2.30;2.00;;;;;;;;;;4931406;29;20063;-77
2023/05/29 10:49:25;;;;;;;1.73;1.63;;;;;;;;;;4928218;29;20118;-77
2023/05/29 10:51:52;;;;;;;1.80;1.70;;;;;;;;;;4924104;29;20040;-77
2023/05/29 10:54:22;;;;;;;1.88;1.77;;;;;;;;;;4921184;29;20059;-77
2023/05/29 10:56:52;;;;;;;;;;;;;;;;;;4926634;29;20071;-77
2023/05/29 10:59:19;;;;;;;1.98;1.88;;;;;;;;;;4925990;29;21951;-77
2023/05/29 11:01:46;;;;;;;2.15;1.90;;;;;;;;;;4923865;29;20051;-76
2023/05/29 11:04:20;;;;;;;1.77;1.67;;;;;;;;;;4927338;29;20051;-78
2023/05/29 11:06:48;;;;;;;2.00;1.90;;;;;;;;;;4929489;29;20407;-77
2023/05/29 11:09:30;;;;;;;1.98;1.88;;;;;;;;;;4928997;29;20514;-78
2023/05/29 11:12:33;;;;;;;1.80;1.50;;;;;;;;;;4925324;29;20040;-78
2023/05/29 11:15:12;;;;;;;1.90;1.80;;;;;;;;;;4928589;29;20204;-78
2023/05/29 11:17:39;;;;;;;1.85;1.75;;;;;;;;;;4927510;29;20052;-77
2023/05/29 11:20:08;;;;;;;2.03;1.80;;;;;;;;;;4916392;29;20048;-78
2023/05/29 11:22:45;;;;;;;1.80;1.70;;;;;;;;;;4923904;29;20047;-78
2023/05/29 11:25:14;;;;;;;2.13;1.70;;;;;;;;;;4928058;29;20137;-77
2023/05/29 11:27:44;;;;;;;1.42;1.33;;;;;;;;;;4931903;29;20050;-78
2023/05/29 11:30:12;;;;;;;2.80;1.70;;;;;;;;;;4929060;28;20060;-76
2023/05/29 11:32:40;;;;;;;1.95;1.85;;;;;;;;;;4927727;29;20130;-76
2023/05/29 11:35:09;;;;;;;1.80;1.70;;;;;;;;;;4930196;29;20062;-78
2023/05/29 11:37:39;;;;;;;1.80;1.70;;;;;;;;;;4930673;29;20056;-78
2023/05/29 11:40:10;;;;;;;1.30;1.30;;;;;;;;;;4926979;29;20047;-77
2023/05/29 11:42:44;;;;;;;1.20;1.20;;;;;;;;;;4923153;29;20059;-77
2023/05/29 11:45:13;;;;;;;1.30;1.30;;;;;;;;;;4929516;29;20075;-78
2023/05/29 11:47:53;;;;;;;2.28;1.80;;;;;;;;;;4932660;29;20048;-78
2023/05/29 11:50:39;;;;;;;1.80;1.70;;;;;;;;;;4931379;29;20048;-79
2023/05/29 11:53:10;;;;;;;1.42;1.42;;;;;;;;;;4930216;29;20071;-78
2023/05/29 11:55:39;;;;;;;1.50;1.40;;;;;;;;;;4934425;29;20062;-78
2023/05/29 11:58:07;;;;;;;1.50;1.50;;;;;;;;;;4927739;29;20074;-79
2023/05/29 12:00:38;;;;;;;1.63;1.52;;;;;;;;;;4933142;29;20060;-78
2023/05/29 12:03:06;;;;;;;1.65;1.55;;;;;;;;;;4934324;29;20050;-78
2023/05/29 12:05:46;;;;;;;1.33;1.30;;;;;;;;;;4932033;29;20154;-78
2023/05/29 12:08:15;;;;;;;1.65;1.55;;;;;;;;;;4928234;29;20051;-78
2023/05/29 12:10:49;;;;;;;1.48;1.38;;;;;;;;;;4925908;29;20062;-78
2023/05/29 12:13:19;;;;;;;1.90;1.80;;;;;;;;;;4921454;29;20047;-78
2023/05/29 12:15:48;;;;;;;1.58;1.48;;;;;;;;;;4931828;29;20036;-77
2023/05/29 12:18:15;;;;;;;1.77;1.67;;;;;;;;;;4927739;29;20525;-77
2023/05/29 12:20:43;;;;;;;1.60;1.50;;;;;;;;;;4924185;29;20051;-77
2023/05/29 12:23:13;;;;;;;1.67;1.58;;;;;;;;;;4926407;29;20107;-77
2023/05/29 12:25:43;;;;;;;1.90;1.80;;;;;;;;;;4918294;29;20044;-78
2023/05/29 12:28:17;;;;;;;1.73;1.63;;;;;;;;;;4922979;29;20051;-78
2023/05/29 12:30:51;;;;;;;1.27;1.27;;;;;;;;;;4927116;29;20047;-78
2023/05/29 12:33:29;;;;;;;1.63;1.33;;;;;;;;;;4928348;29;20058;-78
2023/05/29 12:36:06;;;;;;;1.65;1.55;;;;;;;;;;4927936;29;20063;-78
2023/05/29 12:38:36;;;;;;;1.60;1.50;;;;;;;;;;4928883;29;20541;-78
2023/05/29 12:41:03;;;;;;;1.40;1.40;;;;;;;;;;4928187;29;20131;-78
2023/05/29 12:43:31;;;;;;;1.50;1.40;;;;;;;;;;4920263;29;20048;-78
2023/05/29 12:45:58;;;;;;;1.88;1.77;;;;;;;;;;4928734;29;20052;-77
2023/05/29 12:48:27;;;;;;;1.73;1.63;;;;;;;;;;4934841;29;20051;-77
2023/05/29 12:50:54;;;;;;;1.50;1.40;;;;;;;;;;4922195;29;20517;-77
2023/05/29 12:53:22;;;;;;;1.65;1.60;;;;;;;;;;4936689;29;20521;-77
2023/05/29 12:55:50;;;;;;;1.80;1.70;;;;;;;;;;4938704;29;20054;-77
2023/05/29 12:58:20;;;;;;;1.50;1.50;;;;;;;;;;4935698;29;20699;-77
2023/05/29 13:00:48;;;;;;;1.70;1.60;;;;;;;;;;4938990;29;20053;-77
2023/05/29 13:03:15;;;;;;;2.15;1.80;;;;;;;;;;4926485;29;20406;-78
2023/05/29 13:05:43;;;;;;;1.52;1.50;;;;;;;;;;4934038;29;20044;-78
2023/05/29 13:08:10;;;;;;;1.67;1.58;;;;;;;;;;4936798;29;20304;-77
2023/05/29 13:10:38;;;;;;;1.15;1.15;;;;;;;;;;4935030;28;20111;-78
2023/05/29 13:13:09;;;;;;;1.20;1.20;;;;;;;;;;4936933;28;20048;-77
2023/05/29 13:15:40;;;;;;;1.48;1.48;;;;;;;;;;4938258;28;20129;-78
2023/05/29 13:18:07;;;;;;;3.00;1.52;;;;;;;;;;4935169;29;20517;-77
2023/05/29 13:20:35;;;;;;;1.50;1.38;;;;;;;;;;4934057;29;20102;-78
2023/05/29 13:23:02;;;;;;;1.20;1.20;;;;;;;;;;4935854;28;20035;-78
2023/05/29 13:25:30;;;;;;;1.45;1.35;;;;;;;;;;4937295;29;20058;-77
2023/05/29 13:27:57;;;;;;;1.38;1.38;;;;;;;;;;4937260;28;20094;-77
2023/05/29 13:30:25;;;;;;;1.25;1.25;;;;;;;;;;4939229;29;20068;-78
2023/05/29 13:32:53;;;;;;;1.10;1.10;;;;;;;;;;4937518;29;20047;-78
2023/05/29 13:35:21;;;;;;;1.25;1.25;;;;;;;;;;4940921;28;20116;-77
2023/05/29 13:37:49;;;;;;;1.10;1.10;;;;;;;;;;4941033;29;20122;-78
2023/05/29 13:40:16;;;;;;;1.60;1.50;;;;;;;;;;4936997;29;20506;-78
2023/05/29 13:42:44;;;;;;;2.17;1.85;;;;;;;;;;4927967;28;20040;-77
2023/05/29 13:45:12;;;;;;;1.70;1.60;;;;;;;;;;4921590;29;20044;-77
2023/05/29 13:47:40;;;;;;;1.27;1.27;;;;;;;;;;4925720;29;20056;-77
2023/05/29 13:50:08;;;;;;;1.02;1.02;;;;;;;;;;4927238;29;20039;-77
2023/05/29 13:52:36;;;;;;;1.63;1.52;;;;;;;;;;4907388;29;20040;-77
2023/05/29 13:55:08;;;;;;;1.40;1.30;;;;;;;;;;4925873;29;20203;-77
2023/05/29 13:57:36;;;;;;;1.70;1.60;;;;;;;;;;4924934;29;20053;-78
2023/05/29 14:00:05;;;;;;;1.33;1.30;;;;;;;;;;4922757;29;20063;-79
2023/05/29 14:02:34;;;;;;;1.30;1.30;;;;;;;;;;4919129;29;20629;-78
2023/05/29 14:05:02;;;;;;;1.23;1.20;;;;;;;;;;4921708;29;20310;-79
2023/05/29 14:07:32;;;;;;;1.30;1.30;;;;;;;;;;4925733;29;20066;-79
2023/05/29 14:09:59;;;;;;;1.50;1.40;;;;;;;;;;4914226;29;20075;-80
2023/05/29 14:12:27;;;;;;;1.67;1.58;;;;;;;;;;5004373;23;20073;-77
2023/05/29 14:14:54;;;;;;;1.70;1.60;;;;;;;;;;4937509;28;20043;-75
2023/05/29 14:17:22;;;;;;;1.60;1.50;;;;;;;;;;4940555;28;20740;-75
2023/05/29 14:19:49;;;;;;;1.58;1.48;;;;;;;;;;4942869;28;20142;-76
2023/05/29 14:22:16;;;;;;;1.15;1.15;;;;;;;;;;4942880;28;20098;-75
2023/05/29 14:24:44;;;;;;;1.50;1.40;;;;;;;;;;4943730;28;20047;-76
2023/05/29 14:27:11;;;;;;;1.55;1.40;;;;;;;;;;4941911;28;20146;-76
2023/05/29 14:29:39;;;;;;;1.42;1.42;;;;;;;;;;4942578;28;20130;-76
2023/05/29 14:32:06;;;;;;;1.35;1.35;;;;;;;;;;4936410;28;20035;-75
2023/05/29 14:34:34;;;;;;;1.38;1.27;;;;;;;;;;4939596;29;20728;-76
2023/05/29 14:37:01;;;;;;;1.60;1.50;;;;;;;;;;4942659;28;20707;-76
2023/05/29 14:39:29;;;;;;;1.48;1.38;;;;;;;;;;4942334;28;20044;-76
2023/05/29 14:41:57;;;;;;;1.38;1.38;;;;;;;;;;4937166;28;20040;-76
2023/05/29 14:44:25;;;;;;;1.30;1.30;;;;;;;;;;4943477;28;20051;-75
2023/05/29 14:46:52;;;;;;;1.45;1.35;;;;;;;;;;4944357;28;20058;-76
2023/05/29 14:49:21;;;;;;;1.20;1.20;;;;;;;;;;4945370;28;20055;-75
2023/05/29 14:51:48;;;;;;;1.40;1.30;;;;;;;;;;4944385;28;20512;-75
2023/05/29 14:54:16;;;;;;;1.45;1.35;;;;;;;;;;4944114;28;20089;-77
2023/05/29 14:56:43;;;;;;;1.40;1.30;;;;;;;;;;4945704;28;20222;-76
2023/05/29 14:59:10;;;;;;;1.40;1.40;;;;;;;;;;4948682;28;20071;-76